sensor_id;sensor_type;location;lat;lon;timestamp;temperature;humidity
23729;DHT22;12045;60.214;24.724;2023-02-22T00:00:29;-6.40;99.90
23729;DHT22;12045;60.214;24.724;2023-02-22T00:03:10;-5.40;99.90
23729;DHT22;12045;60.214;24.724;2023-02-22T00:05:38;-6.20;99.90
23729;DHT22;12045;60.214;24.724;2023-02-22T00:08:06;-6.30;99.90
23729;DHT22;12045;60.214;24.724;2023-02-22T00:10:37;-6.20;99.90
23729;DHT22;12045;60.214;24.724;2023-02-22T00:13:06;-5.90;99.90
23729;DHT22;12045;60.214;24.724;2023-02-22T00:15:34;-3.30;99.90
23729;DHT22;12045;60.214;24.724;2023-02-22T00:18:03;-6.10;99.90
23729;DHT22;12045;60.214;24.724;2023-02-22T00:20:31;-6.20;99.90
23729;DHT22;12045;60.214;24.724;2023-02-22T00:22:59;-6.20;99.90
23729;DHT22;12045;60.214;24.724;2023-02-22T00:25:27;-6.40;99.90
23729;DHT22;12045;60.214;24.724;2023-02-22T00:27:54;-5.50;99.90
23729;DHT22;12045;60.214;24.724;2023-02-22T00:30:27;-5.90;99.90
23729;DHT22;12045;60.214;24.724;2023-02-22T00:32:59;-6.40;99.90
23729;DHT22;12045;60.214;24.724;2023-02-22T00:35:28;-6.40;99.90
23729;DHT22;12045;60.214;24.724;2023-02-22T00:37:58;-6.30;99.90
23729;DHT22;12045;60.214;24.724;2023-02-22T00:40:28;-6.20;99.90
23729;DHT22;12045;60.214;24.724;2023-02-22T00:43:01;-6.30;99.90
23729;DHT22;12045;60.214;24.724;2023-02-22T00:45:30;-6.90;99.90
23729;DHT22;12045;60.214;24.724;2023-02-22T00:47:59;-6.10;99.90
23729;DHT22;12045;60.214;24.724;2023-02-22T00:50:28;-6.30;99.90
23729;DHT22;12045;60.214;24.724;2023-02-22T00:52:58;-6.10;99.90
23729;DHT22;12045;60.214;24.724;2023-02-22T00:55:28;-6.10;99.90
23729;DHT22;12045;60.214;24.724;2023-02-22T00:57:57;-6.10;99.90
23729;DHT22;12045;60.214;24.724;2023-02-22T01:02:54;-5.40;99.90
23729;DHT22;12045;60.214;24.724;2023-02-22T01:05:27;-5.90;99.90
23729;DHT22;12045;60.214;24.724;2023-02-22T01:07:56;-6.00;99.90
23729;DHT22;12045;60.214;24.724;2023-02-22T01:10:26;-6.30;99.90
23729;DHT22;12045;60.214;24.724;2023-02-22T01:12:55;-5.90;99.90
23729;DHT22;12045;60.214;24.724;2023-02-22T01:15:25;-6.30;99.90
23729;DHT22;12045;60.214;24.724;2023-02-22T01:17:56;-6.90;99.90
23729;DHT22;12045;60.214;24.724;2023-02-22T01:20:25;-5.90;99.90
23729;DHT22;12045;60.214;24.724;2023-02-22T01:22:55;-6.20;99.90
23729;DHT22;12045;60.214;24.724;2023-02-22T01:25:25;-6.30;99.90
23729;DHT22;12045;60.214;24.724;2023-02-22T01:27:53;-6.30;99.90
23729;DHT22;12045;60.214;24.724;2023-02-22T01:30:28;-6.20;99.90
23729;DHT22;12045;60.214;24.724;2023-02-22T01:32:56;-6.70;99.90
23729;DHT22;12045;60.214;24.724;2023-02-22T01:35:29;-6.70;99.90
23729;DHT22;12045;60.214;24.724;2023-02-22T01:37:57;-6.80;99.90
23729;DHT22;12045;60.214;24.724;2023-02-22T01:40:34;-6.90;99.90
23729;DHT22;12045;60.214;24.724;2023-02-22T01:43:27;-6.90;99.90
23729;DHT22;12045;60.214;24.724;2023-02-22T01:46:22;-6.00;99.90
23729;DHT22;12045;60.214;24.724;2023-02-22T01:48:56;-6.80;99.90
23729;DHT22;12045;60.214;24.724;2023-02-22T01:51:29;-6.20;99.90
23729;DHT22;12045;60.214;24.724;2023-02-22T01:54:03;-7.00;99.90
23729;DHT22;12045;60.214;24.724;2023-02-22T01:56:35;-7.50;99.90
23729;DHT22;12045;60.214;24.724;2023-02-22T01:59:08;-7.40;99.90
23729;DHT22;12045;60.214;24.724;2023-02-22T02:01:38;-7.60;99.90
23729;DHT22;12045;60.214;24.724;2023-02-22T02:04:12;-7.70;99.90
23729;DHT22;12045;60.214;24.724;2023-02-22T02:06:42;-7.70;99.90
23729;DHT22;12045;60.214;24.724;2023-02-22T02:09:26;-8.40;99.90
23729;DHT22;12045;60.214;24.724;2023-02-22T02:11:58;-7.60;99.90
23729;DHT22;12045;60.214;24.724;2023-02-22T02:14:32;-8.00;99.90
23729;DHT22;12045;60.214;24.724;2023-02-22T02:17:00;-7.10;99.90
23729;DHT22;12045;60.214;24.724;2023-02-22T02:19:54;-7.90;99.90
23729;DHT22;12045;60.214;24.724;2023-02-22T02:25:29;-7.70;99.90
23729;DHT22;12045;60.214;24.724;2023-02-22T02:33:43;-7.80;99.90
23729;DHT22;12045;60.214;24.724;2023-02-22T02:36:28;-7.90;99.90
23729;DHT22;12045;60.214;24.724;2023-02-22T02:39:38;-8.30;99.90
23729;DHT22;12045;60.214;24.724;2023-02-22T02:41:57;-7.60;99.90
23729;DHT22;12045;60.214;24.724;2023-02-22T02:44:27;-7.80;99.90
23729;DHT22;12045;60.214;24.724;2023-02-22T02:49:55;-8.40;99.90
23729;DHT22;12045;60.214;24.724;2023-02-22T02:52:25;-8.40;99.90
23729;DHT22;12045;60.214;24.724;2023-02-22T02:54:53;-8.60;99.90
23729;DHT22;12045;60.214;24.724;2023-02-22T02:57:21;-8.70;99.90
23729;DHT22;12045;60.214;24.724;2023-02-22T02:59:50;-7.50;99.90
23729;DHT22;12045;60.214;24.724;2023-02-22T03:12:47;-9.10;99.90
23729;DHT22;12045;60.214;24.724;2023-02-22T03:18:37;-9.00;99.90
23729;DHT22;12045;60.214;24.724;2023-02-22T03:21:33;-9.10;99.90
23729;DHT22;12045;60.214;24.724;2023-02-22T03:27:15;-8.70;99.90
23729;DHT22;12045;60.214;24.724;2023-02-22T03:29:44;-8.00;99.90
23729;DHT22;12045;60.214;24.724;2023-02-22T03:32:16;-9.30;99.90
23729;DHT22;12045;60.214;24.724;2023-02-22T03:34:51;-8.50;99.90
23729;DHT22;12045;60.214;24.724;2023-02-22T03:37:32;-9.30;99.90
23729;DHT22;12045;60.214;24.724;2023-02-22T03:40:02;-9.40;99.90
23729;DHT22;12045;60.214;24.724;2023-02-22T03:42:49;-9.30;99.90
23729;DHT22;12045;60.214;24.724;2023-02-22T03:45:20;-9.40;99.90
23729;DHT22;12045;60.214;24.724;2023-02-22T03:48:15;-9.60;99.90
23729;DHT22;12045;60.214;24.724;2023-02-22T03:50:40;-10.10;99.90
23729;DHT22;12045;60.214;24.724;2023-02-22T03:53:08;-9.70;99.90
23729;DHT22;12045;60.214;24.724;2023-02-22T03:55:36;-9.20;99.90
23729;DHT22;12045;60.214;24.724;2023-02-22T03:58:09;-9.60;99.90
23729;DHT22;12045;60.214;24.724;2023-02-22T04:00:38;-9.30;99.90
23729;DHT22;12045;60.214;24.724;2023-02-22T04:03:05;-9.50;99.90
23729;DHT22;12045;60.214;24.724;2023-02-22T04:05:33;-9.40;99.90
23729;DHT22;12045;60.214;24.724;2023-02-22T04:08:00;-9.60;99.90
23729;DHT22;12045;60.214;24.724;2023-02-22T04:10:27;-10.10;99.90
23729;DHT22;12045;60.214;24.724;2023-02-22T04:12:55;-9.60;99.90
23729;DHT22;12045;60.214;24.724;2023-02-22T04:15:23;-9.80;99.90
23729;DHT22;12045;60.214;24.724;2023-02-22T04:17:50;-9.30;99.90
23729;DHT22;12045;60.214;24.724;2023-02-22T04:20:18;-10.00;99.90
23729;DHT22;12045;60.214;24.724;2023-02-22T04:22:49;-9.90;99.90
23729;DHT22;12045;60.214;24.724;2023-02-22T04:25:16;-9.90;99.90
23729;DHT22;12045;60.214;24.724;2023-02-22T04:27:44;-10.00;99.90
23729;DHT22;12045;60.214;24.724;2023-02-22T04:30:12;-9.70;99.90
23729;DHT22;12045;60.214;24.724;2023-02-22T04:32:39;-10.30;99.90
23729;DHT22;12045;60.214;24.724;2023-02-22T04:35:07;-9.90;99.90
23729;DHT22;12045;60.214;24.724;2023-02-22T04:37:35;-9.90;99.90
23729;DHT22;12045;60.214;24.724;2023-02-22T04:40:04;-10.30;99.90
23729;DHT22;12045;60.214;24.724;2023-02-22T04:42:35;-10.00;99.90
23729;DHT22;12045;60.214;24.724;2023-02-22T04:45:04;-10.30;99.90
23729;DHT22;12045;60.214;24.724;2023-02-22T04:47:33;-10.00;99.90
23729;DHT22;12045;60.214;24.724;2023-02-22T04:50:00;-10.50;99.90
23729;DHT22;12045;60.214;24.724;2023-02-22T04:52:28;-11.00;99.90
23729;DHT22;12045;60.214;24.724;2023-02-22T04:54:55;-10.30;99.90
23729;DHT22;12045;60.214;24.724;2023-02-22T04:57:23;-10.20;99.90
23729;DHT22;12045;60.214;24.724;2023-02-22T04:59:50;-8.50;99.90
23729;DHT22;12045;60.214;24.724;2023-02-22T05:02:18;-9.30;99.90
23729;DHT22;12045;60.214;24.724;2023-02-22T05:04:45;-10.00;99.90
23729;DHT22;12045;60.214;24.724;2023-02-22T05:07:13;-10.20;99.90
23729;DHT22;12045;60.214;24.724;2023-02-22T05:09:40;-10.40;99.90
23729;DHT22;12045;60.214;24.724;2023-02-22T05:12:08;-10.80;99.90
23729;DHT22;12045;60.214;24.724;2023-02-22T05:14:36;-10.40;99.90
23729;DHT22;12045;60.214;24.724;2023-02-22T05:17:03;-10.40;99.90
23729;DHT22;12045;60.214;24.724;2023-02-22T05:19:31;-10.40;99.90
23729;DHT22;12045;60.214;24.724;2023-02-22T05:21:58;-10.30;99.90
23729;DHT22;12045;60.214;24.724;2023-02-22T05:24:26;-10.30;99.90
23729;DHT22;12045;60.214;24.724;2023-02-22T05:26:53;-10.60;99.90
23729;DHT22;12045;60.214;24.724;2023-02-22T05:29:22;-10.10;99.90
23729;DHT22;12045;60.214;24.724;2023-02-22T05:31:49;-10.70;99.90
23729;DHT22;12045;60.214;24.724;2023-02-22T05:34:17;-10.60;99.90
23729;DHT22;12045;60.214;24.724;2023-02-22T05:36:44;-10.80;99.90
23729;DHT22;12045;60.214;24.724;2023-02-22T05:39:12;-10.80;99.90
23729;DHT22;12045;60.214;24.724;2023-02-22T05:41:40;-10.60;99.90
23729;DHT22;12045;60.214;24.724;2023-02-22T05:44:07;-10.50;99.90
23729;DHT22;12045;60.214;24.724;2023-02-22T05:46:34;-10.60;99.90
23729;DHT22;12045;60.214;24.724;2023-02-22T05:49:02;-10.90;99.90
23729;DHT22;12045;60.214;24.724;2023-02-22T05:51:30;-10.80;99.90
23729;DHT22;12045;60.214;24.724;2023-02-22T05:53:57;-11.10;99.90
23729;DHT22;12045;60.214;24.724;2023-02-22T05:56:27;-11.30;99.90
23729;DHT22;12045;60.214;24.724;2023-02-22T05:58:55;-11.30;99.90
23729;DHT22;12045;60.214;24.724;2023-02-22T06:01:23;-11.00;99.90
23729;DHT22;12045;60.214;24.724;2023-02-22T06:03:51;-11.10;99.90
23729;DHT22;12045;60.214;24.724;2023-02-22T06:06:19;-11.00;99.90
23729;DHT22;12045;60.214;24.724;2023-02-22T06:08:48;-11.40;99.90
23729;DHT22;12045;60.214;24.724;2023-02-22T06:11:16;-11.30;99.90
23729;DHT22;12045;60.214;24.724;2023-02-22T06:13:52;-11.10;99.90
23729;DHT22;12045;60.214;24.724;2023-02-22T06:16:20;-11.10;99.90
23729;DHT22;12045;60.214;24.724;2023-02-22T06:18:48;-10.90;99.90
23729;DHT22;12045;60.214;24.724;2023-02-22T06:21:15;-11.20;99.90
23729;DHT22;12045;60.214;24.724;2023-02-22T06:23:44;-11.20;99.90
23729;DHT22;12045;60.214;24.724;2023-02-22T06:26:11;-11.00;99.90
23729;DHT22;12045;60.214;24.724;2023-02-22T06:28:41;-11.50;99.90
23729;DHT22;12045;60.214;24.724;2023-02-22T06:31:09;-11.20;99.90
23729;DHT22;12045;60.214;24.724;2023-02-22T06:33:36;-11.00;99.90
23729;DHT22;12045;60.214;24.724;2023-02-22T06:36:04;-11.00;99.90
23729;DHT22;12045;60.214;24.724;2023-02-22T06:38:32;-10.90;99.90
23729;DHT22;12045;60.214;24.724;2023-02-22T06:40:59;-11.30;99.90
23729;DHT22;12045;60.214;24.724;2023-02-22T06:43:29;-10.90;99.90
23729;DHT22;12045;60.214;24.724;2023-02-22T06:45:56;-10.90;99.90
23729;DHT22;12045;60.214;24.724;2023-02-22T06:48:24;-11.60;99.90
23729;DHT22;12045;60.214;24.724;2023-02-22T06:50:51;-11.10;99.90
23729;DHT22;12045;60.214;24.724;2023-02-22T06:53:19;-11.00;99.90
23729;DHT22;12045;60.214;24.724;2023-02-22T06:55:46;-11.20;99.90
23729;DHT22;12045;60.214;24.724;2023-02-22T06:58:13;-10.00;99.90
23729;DHT22;12045;60.214;24.724;2023-02-22T07:00:42;-11.40;99.90
23729;DHT22;12045;60.214;24.724;2023-02-22T07:03:12;-11.40;99.90
23729;DHT22;12045;60.214;24.724;2023-02-22T07:05:40;-11.50;99.90
23729;DHT22;12045;60.214;24.724;2023-02-22T07:08:08;-11.00;99.90
23729;DHT22;12045;60.214;24.724;2023-02-22T07:10:36;-11.20;99.90
23729;DHT22;12045;60.214;24.724;2023-02-22T07:13:05;-11.00;99.90
23729;DHT22;12045;60.214;24.724;2023-02-22T07:15:34;-10.70;99.90
23729;DHT22;12045;60.214;24.724;2023-02-22T07:18:02;-11.00;99.90
23729;DHT22;12045;60.214;24.724;2023-02-22T07:20:30;-10.30;99.90
23729;DHT22;12045;60.214;24.724;2023-02-22T07:22:58;-11.10;99.90
23729;DHT22;12045;60.214;24.724;2023-02-22T07:25:25;-11.00;99.90
23729;DHT22;12045;60.214;24.724;2023-02-22T07:27:53;-11.00;99.90
23729;DHT22;12045;60.214;24.724;2023-02-22T07:30:26;-10.90;99.90
23729;DHT22;12045;60.214;24.724;2023-02-22T07:32:59;-9.10;99.90
23729;DHT22;12045;60.214;24.724;2023-02-22T07:35:29;-10.90;99.90
23729;DHT22;12045;60.214;24.724;2023-02-22T07:37:57;-10.80;99.90
23729;DHT22;12045;60.214;24.724;2023-02-22T07:40:26;-10.90;99.90
23729;DHT22;12045;60.214;24.724;2023-02-22T07:42:56;-8.80;99.90
23729;DHT22;12045;60.214;24.724;2023-02-22T07:45:26;-10.50;99.90
23729;DHT22;12045;60.214;24.724;2023-02-22T07:47:54;-10.90;99.90
23729;DHT22;12045;60.214;24.724;2023-02-22T07:50:25;-10.20;99.90
23729;DHT22;12045;60.214;24.724;2023-02-22T07:52:54;-10.50;99.90
23729;DHT22;12045;60.214;24.724;2023-02-22T07:55:25;-10.40;99.90
23729;DHT22;12045;60.214;24.724;2023-02-22T07:57:55;-10.50;99.90
23729;DHT22;12045;60.214;24.724;2023-02-22T08:00:25;-10.30;99.90
23729;DHT22;12045;60.214;24.724;2023-02-22T08:02:54;-9.40;99.90
23729;DHT22;12045;60.214;24.724;2023-02-22T08:05:24;-10.50;99.90
23729;DHT22;12045;60.214;24.724;2023-02-22T08:07:51;-9.90;99.90
23729;DHT22;12045;60.214;24.724;2023-02-22T08:10:21;-10.30;99.90
23729;DHT22;12045;60.214;24.724;2023-02-22T08:12:49;-10.30;99.90
23729;DHT22;12045;60.214;24.724;2023-02-22T08:15:23;-10.00;99.90
23729;DHT22;12045;60.214;24.724;2023-02-22T08:17:51;-10.30;99.90
23729;DHT22;12045;60.214;24.724;2023-02-22T08:20:20;-10.30;99.90
23729;DHT22;12045;60.214;24.724;2023-02-22T08:22:48;-10.70;99.90
23729;DHT22;12045;60.214;24.724;2023-02-22T08:25:17;-10.00;99.90
23729;DHT22;12045;60.214;24.724;2023-02-22T08:27:44;-10.00;99.90
23729;DHT22;12045;60.214;24.724;2023-02-22T08:30:22;-10.10;99.90
23729;DHT22;12045;60.214;24.724;2023-02-22T08:32:50;-10.00;99.90
23729;DHT22;12045;60.214;24.724;2023-02-22T08:35:19;-8.80;99.90
23729;DHT22;12045;60.214;24.724;2023-02-22T08:37:52;-10.10;99.90
23729;DHT22;12045;60.214;24.724;2023-02-22T08:40:23;-10.10;99.90
23729;DHT22;12045;60.214;24.724;2023-02-22T08:42:52;-9.60;99.90
23729;DHT22;12045;60.214;24.724;2023-02-22T08:45:20;-9.80;99.90
23729;DHT22;12045;60.214;24.724;2023-02-22T08:47:48;-9.00;99.90
23729;DHT22;12045;60.214;24.724;2023-02-22T08:50:22;-9.70;99.90
23729;DHT22;12045;60.214;24.724;2023-02-22T08:52:52;-8.40;99.90
23729;DHT22;12045;60.214;24.724;2023-02-22T08:55:22;-9.50;99.90
23729;DHT22;12045;60.214;24.724;2023-02-22T08:57:50;-9.50;99.90
23729;DHT22;12045;60.214;24.724;2023-02-22T09:00:18;-9.30;99.90
23729;DHT22;12045;60.214;24.724;2023-02-22T09:02:46;-9.10;99.90
23729;DHT22;12045;60.214;24.724;2023-02-22T09:05:14;-9.10;99.90
23729;DHT22;12045;60.214;24.724;2023-02-22T09:07:43;-9.10;99.90
23729;DHT22;12045;60.214;24.724;2023-02-22T09:10:25;-9.20;99.90
23729;DHT22;12045;60.214;24.724;2023-02-22T09:12:53;-9.00;99.90
23729;DHT22;12045;60.214;24.724;2023-02-22T09:15:23;-9.10;99.90
23729;DHT22;12045;60.214;24.724;2023-02-22T09:17:51;-9.30;99.90
23729;DHT22;12045;60.214;24.724;2023-02-22T09:20:19;-8.40;99.90
23729;DHT22;12045;60.214;24.724;2023-02-22T09:22:48;-8.90;99.90
23729;DHT22;12045;60.214;24.724;2023-02-22T09:25:16;-8.90;99.90
23729;DHT22;12045;60.214;24.724;2023-02-22T09:27:46;-9.20;99.90
23729;DHT22;12045;60.214;24.724;2023-02-22T09:30:21;-8.90;99.90
23729;DHT22;12045;60.214;24.724;2023-02-22T09:32:51;-9.00;99.90
23729;DHT22;12045;60.214;24.724;2023-02-22T09:35:20;-8.80;99.90
23729;DHT22;12045;60.214;24.724;2023-02-22T09:37:59;-7.80;99.90
23729;DHT22;12045;60.214;24.724;2023-02-22T09:40:29;-8.80;99.90
23729;DHT22;12045;60.214;24.724;2023-02-22T09:49:46;-8.30;99.90
23729;DHT22;12045;60.214;24.724;2023-02-22T09:52:03;-8.50;99.90
23729;DHT22;12045;60.214;24.724;2023-02-22T09:55:19;-8.60;99.90
23729;DHT22;12045;60.214;24.724;2023-02-22T09:57:30;-8.10;99.90
23729;DHT22;12045;60.214;24.724;2023-02-22T10:00:06;-8.20;99.90
23729;DHT22;12045;60.214;24.724;2023-02-22T10:03:23;-7.30;99.90
23729;DHT22;12045;60.214;24.724;2023-02-22T10:08:28;-8.10;99.90
23729;DHT22;12045;60.214;24.724;2023-02-22T10:16:55;-8.00;99.90
23729;DHT22;12045;60.214;24.724;2023-02-22T10:30:22;-7.70;99.90
23729;DHT22;12045;60.214;24.724;2023-02-22T10:33:21;-6.80;99.90
23729;DHT22;12045;60.214;24.724;2023-02-22T10:35:52;-7.50;99.90
23729;DHT22;12045;60.214;24.724;2023-02-22T10:38:23;-7.60;99.90
23729;DHT22;12045;60.214;24.724;2023-02-22T10:43:31;-7.20;99.90
23729;DHT22;12045;60.214;24.724;2023-02-22T10:46:02;-7.40;99.90
23729;DHT22;12045;60.214;24.724;2023-02-22T10:48:34;-7.30;99.90
23729;DHT22;12045;60.214;24.724;2023-02-22T10:51:04;-6.30;99.90
23729;DHT22;12045;60.214;24.724;2023-02-22T10:53:32;-7.00;99.90
23729;DHT22;12045;60.214;24.724;2023-02-22T10:56:18;-7.60;99.90
23729;DHT22;12045;60.214;24.724;2023-02-22T10:59:00;-7.00;99.90
23729;DHT22;12045;60.214;24.724;2023-02-22T11:07:05;-7.00;99.90
23729;DHT22;12045;60.214;24.724;2023-02-22T11:09:49;-6.80;99.90
23729;DHT22;12045;60.214;24.724;2023-02-22T11:12:20;-7.50;99.90
23729;DHT22;12045;60.214;24.724;2023-02-22T11:14:52;-7.00;99.90
23729;DHT22;12045;60.214;24.724;2023-02-22T11:17:31;-7.10;99.90
23729;DHT22;12045;60.214;24.724;2023-02-22T11:20:00;-6.30;99.90
23729;DHT22;12045;60.214;24.724;2023-02-22T11:22:39;-6.90;99.90
23729;DHT22;12045;60.214;24.724;2023-02-22T11:25:16;-6.70;99.90
23729;DHT22;12045;60.214;24.724;2023-02-22T11:27:45;-6.50;99.90
23729;DHT22;12045;60.214;24.724;2023-02-22T11:30:30;-6.50;99.90
23729;DHT22;12045;60.214;24.724;2023-02-22T11:35:52;-6.30;99.90
23729;DHT22;12045;60.214;24.724;2023-02-22T11:38:25;-6.40;99.90
23729;DHT22;12045;60.214;24.724;2023-02-22T11:41:11;-7.10;99.90
23729;DHT22;12045;60.214;24.724;2023-02-22T11:43:44;-6.30;99.90
23729;DHT22;12045;60.214;24.724;2023-02-22T11:46:16;-6.30;99.90
23729;DHT22;12045;60.214;24.724;2023-02-22T11:48:57;-6.40;99.90
23729;DHT22;12045;60.214;24.724;2023-02-22T12:00:49;-5.90;99.90
23729;DHT22;12045;60.214;24.724;2023-02-22T12:09:12;-5.80;99.90
23729;DHT22;12045;60.214;24.724;2023-02-22T12:11:52;-5.40;99.90
23729;DHT22;12045;60.214;24.724;2023-02-22T12:14:43;-5.50;99.90
23729;DHT22;12045;60.214;24.724;2023-02-22T12:19:49;-5.90;99.90
23729;DHT22;12045;60.214;24.724;2023-02-22T12:25:02;-5.40;99.90
23729;DHT22;12045;60.214;24.724;2023-02-22T12:28:15;-5.90;99.90
23729;DHT22;12045;60.214;24.724;2023-02-22T12:31:22;-5.60;99.90
23729;DHT22;12045;60.214;24.724;2023-02-22T12:36:50;-5.70;99.90
23729;DHT22;12045;60.214;24.724;2023-02-22T12:39:32;-5.90;99.90
23729;DHT22;12045;60.214;24.724;2023-02-22T12:50:36;-5.30;99.90
23729;DHT22;12045;60.214;24.724;2023-02-22T12:53:19;-5.60;99.90
23729;DHT22;12045;60.214;24.724;2023-02-22T12:55:54;-5.50;99.90
23729;DHT22;12045;60.214;24.724;2023-02-22T13:01:19;-4.90;99.90
23729;DHT22;12045;60.214;24.724;2023-02-22T13:03:48;-4.80;99.90
23729;DHT22;12045;60.214;24.724;2023-02-22T13:06:41;-4.70;99.90
23729;DHT22;12045;60.214;24.724;2023-02-22T13:17:49;-5.00;99.90
23729;DHT22;12045;60.214;24.724;2023-02-22T13:20:29;-5.00;99.90
23729;DHT22;12045;60.214;24.724;2023-02-22T13:29:04;-5.40;99.90
23729;DHT22;12045;60.214;24.724;2023-02-22T13:32:01;-5.10;99.90
23729;DHT22;12045;60.214;24.724;2023-02-22T13:34:49;-5.00;99.90
23729;DHT22;12045;60.214;24.724;2023-02-22T13:43:03;-5.10;99.90
23729;DHT22;12045;60.214;24.724;2023-02-22T13:53:41;-5.10;99.90
23729;DHT22;12045;60.214;24.724;2023-02-22T13:56:14;-5.30;99.90
23729;DHT22;12045;60.214;24.724;2023-02-22T13:58:51;-5.00;99.90
23729;DHT22;12045;60.214;24.724;2023-02-22T14:01:46;-5.20;99.90
23729;DHT22;12045;60.214;24.724;2023-02-22T14:06:56;-5.10;99.90
23729;DHT22;12045;60.214;24.724;2023-02-22T14:09:46;-5.20;99.90
23729;DHT22;12045;60.214;24.724;2023-02-22T14:17:58;-5.40;99.90
23729;DHT22;12045;60.214;24.724;2023-02-22T14:20:35;-5.40;99.90
23729;DHT22;12045;60.214;24.724;2023-02-22T14:25:49;-5.50;99.90
23729;DHT22;12045;60.214;24.724;2023-02-22T14:28:54;-5.40;99.90
23729;DHT22;12045;60.214;24.724;2023-02-22T14:31:32;-5.40;99.90
23729;DHT22;12045;60.214;24.724;2023-02-22T14:34:04;-5.50;99.90
23729;DHT22;12045;60.214;24.724;2023-02-22T14:39:17;-5.40;99.90
23729;DHT22;12045;60.214;24.724;2023-02-22T14:41:56;-5.80;99.90
23729;DHT22;12045;60.214;24.724;2023-02-22T14:44:33;-5.60;99.90
23729;DHT22;12045;60.214;24.724;2023-02-22T14:47:05;-6.00;99.90
23729;DHT22;12045;60.214;24.724;2023-02-22T14:49:44;-5.80;99.90
23729;DHT22;12045;60.214;24.724;2023-02-22T14:52:22;-3.90;99.90
23729;DHT22;12045;60.214;24.724;2023-02-22T14:57:58;-5.90;99.90
23729;DHT22;12045;60.214;24.724;2023-02-22T15:00:38;-5.70;99.90
23729;DHT22;12045;60.214;24.724;2023-02-22T15:03:29;-5.70;99.90
23729;DHT22;12045;60.214;24.724;2023-02-22T15:06:06;-5.90;99.90
23729;DHT22;12045;60.214;24.724;2023-02-22T15:08:42;-5.80;99.90
23729;DHT22;12045;60.214;24.724;2023-02-22T15:11:23;-5.90;99.90
23729;DHT22;12045;60.214;24.724;2023-02-22T15:13:53;-5.90;99.90
23729;DHT22;12045;60.214;24.724;2023-02-22T15:16:22;-6.10;99.90
23729;DHT22;12045;60.214;24.724;2023-02-22T15:18:56;-6.20;99.90
23729;DHT22;12045;60.214;24.724;2023-02-22T15:21:28;-6.10;99.90
23729;DHT22;12045;60.214;24.724;2023-02-22T15:23:59;-6.40;99.90
23729;DHT22;12045;60.214;24.724;2023-02-22T15:26:37;-6.40;99.90
23729;DHT22;12045;60.214;24.724;2023-02-22T15:29:21;-6.30;99.90
23729;DHT22;12045;60.214;24.724;2023-02-22T15:31:51;-6.20;99.90
23729;DHT22;12045;60.214;24.724;2023-02-22T15:34:30;-6.30;99.90
23729;DHT22;12045;60.214;24.724;2023-02-22T15:37:20;-6.30;99.90
23729;DHT22;12045;60.214;24.724;2023-02-22T15:39:52;-6.20;99.90
23729;DHT22;12045;60.214;24.724;2023-02-22T15:42:26;-6.40;99.90
23729;DHT22;12045;60.214;24.724;2023-02-22T15:44:56;-6.70;99.90
23729;DHT22;12045;60.214;24.724;2023-02-22T15:47:26;-6.20;99.90
23729;DHT22;12045;60.214;24.724;2023-02-22T15:50:15;-6.10;99.90
23729;DHT22;12045;60.214;24.724;2023-02-22T15:52:55;-6.50;99.90
23729;DHT22;12045;60.214;24.724;2023-02-22T15:55:44;-6.70;99.90
23729;DHT22;12045;60.214;24.724;2023-02-22T15:58:21;-6.70;99.90
23729;DHT22;12045;60.214;24.724;2023-02-22T16:01:00;-6.90;99.90
23729;DHT22;12045;60.214;24.724;2023-02-22T16:03:56;-6.50;99.90
23729;DHT22;12045;60.214;24.724;2023-02-22T16:06:31;-6.90;99.90
23729;DHT22;12045;60.214;24.724;2023-02-22T16:09:10;-6.80;99.90
23729;DHT22;12045;60.214;24.724;2023-02-22T16:11:41;-5.40;99.90
23729;DHT22;12045;60.214;24.724;2023-02-22T16:14:29;-6.80;99.90
23729;DHT22;12045;60.214;24.724;2023-02-22T16:17:33;-6.70;99.90
23729;DHT22;12045;60.214;24.724;2023-02-22T16:22:41;-7.40;99.90
23729;DHT22;12045;60.214;24.724;2023-02-22T16:28:22;-7.00;99.90
23729;DHT22;12045;60.214;24.724;2023-02-22T16:30:56;-7.00;99.90
23729;DHT22;12045;60.214;24.724;2023-02-22T16:33:24;-4.80;99.90
23729;DHT22;12045;60.214;24.724;2023-02-22T16:35:56;-7.30;99.90
23729;DHT22;12045;60.214;24.724;2023-02-22T16:38:23;-7.10;99.90
23729;DHT22;12045;60.214;24.724;2023-02-22T16:40:55;-7.10;99.90
23729;DHT22;12045;60.214;24.724;2023-02-22T16:43:26;-7.60;99.90
23729;DHT22;12045;60.214;24.724;2023-02-22T16:45:56;-7.50;99.90
23729;DHT22;12045;60.214;24.724;2023-02-22T16:48:25;-7.10;99.90
23729;DHT22;12045;60.214;24.724;2023-02-22T16:50:54;-7.20;99.90
23729;DHT22;12045;60.214;24.724;2023-02-22T16:53:25;-6.60;99.90
23729;DHT22;12045;60.214;24.724;2023-02-22T16:55:56;-7.20;99.90
23729;DHT22;12045;60.214;24.724;2023-02-22T16:58:25;-7.30;99.90
23729;DHT22;12045;60.214;24.724;2023-02-22T17:00:55;-7.20;99.90
23729;DHT22;12045;60.214;24.724;2023-02-22T17:03:24;-7.40;99.90
23729;DHT22;12045;60.214;24.724;2023-02-22T17:05:52;-7.20;99.90
23729;DHT22;12045;60.214;24.724;2023-02-22T17:08:20;-7.20;99.90
23729;DHT22;12045;60.214;24.724;2023-02-22T17:10:48;-7.50;99.90
23729;DHT22;12045;60.214;24.724;2023-02-22T17:13:19;-6.90;99.90
23729;DHT22;12045;60.214;24.724;2023-02-22T17:15:52;-7.10;99.90
23729;DHT22;12045;60.214;24.724;2023-02-22T17:18:22;-6.80;99.90
23729;DHT22;12045;60.214;24.724;2023-02-22T17:20:51;-7.60;99.90
23729;DHT22;12045;60.214;24.724;2023-02-22T17:23:19;-7.00;99.90
23729;DHT22;12045;60.214;24.724;2023-02-22T17:28:20;-6.60;99.90
23729;DHT22;12045;60.214;24.724;2023-02-22T17:30:50;-7.10;99.90
23729;DHT22;12045;60.214;24.724;2023-02-22T17:33:20;-6.90;99.90
23729;DHT22;12045;60.214;24.724;2023-02-22T17:35:47;-7.10;99.90
23729;DHT22;12045;60.214;24.724;2023-02-22T17:38:15;-7.00;99.90
23729;DHT22;12045;60.214;24.724;2023-02-22T17:40:47;-7.10;99.90
23729;DHT22;12045;60.214;24.724;2023-02-22T17:43:15;-7.80;99.90
23729;DHT22;12045;60.214;24.724;2023-02-22T17:45:43;-7.60;99.90
23729;DHT22;12045;60.214;24.724;2023-02-22T17:48:13;-7.70;99.90
23729;DHT22;12045;60.214;24.724;2023-02-22T17:50:42;-7.90;99.90
23729;DHT22;12045;60.214;24.724;2023-02-22T17:53:10;-8.00;99.90
23729;DHT22;12045;60.214;24.724;2023-02-22T17:55:40;-8.00;99.90
23729;DHT22;12045;60.214;24.724;2023-02-22T17:58:09;-7.90;99.90
23729;DHT22;12045;60.214;24.724;2023-02-22T18:00:47;-7.90;99.90
23729;DHT22;12045;60.214;24.724;2023-02-22T18:03:18;-7.80;99.90
23729;DHT22;12045;60.214;24.724;2023-02-22T18:05:57;-7.60;99.90
23729;DHT22;12045;60.214;24.724;2023-02-22T18:08:27;-7.60;99.90
23729;DHT22;12045;60.214;24.724;2023-02-22T18:10:55;-6.70;99.90
23729;DHT22;12045;60.214;24.724;2023-02-22T18:13:24;-8.40;99.90
23729;DHT22;12045;60.214;24.724;2023-02-22T18:15:55;-8.00;99.90
23729;DHT22;12045;60.214;24.724;2023-02-22T18:18:26;-8.10;99.90
23729;DHT22;12045;60.214;24.724;2023-02-22T18:20:54;-8.10;99.90